Time;durP1;ratioP1;P1;durP2;ratioP2;P2;SDS_P1;SDS_P2;PMS_P1;PMS_P2;Temp;Humidity;BMP_temperature;BMP_pressure;BME280_temperature;BME280_humidity;BME280_pressure;Samples;Min_cycle;Max_cycle;Signal;HPM_P1;HPM_P2
2023/12/17 00:00:45;;;;;;;11.30;7.43;;;9.40;99.90;;;;;;4156524;28;20041;-72
2023/12/17 00:02:45;;;;;;;16.77;7.95;;;9.40;99.90;;;;;;4165051;28;20110;-72
2023/12/17 00:04:46;;;;;;;10.38;7.40;;;9.40;99.90;;;;;;4159095;28;20033;-72
2023/12/17 00:06:46;;;;;;;13.70;7.53;;;9.50;99.90;;;;;;4170065;28;20490;-71
2023/12/17 00:08:48;;;;;;;12.15;7.63;;;9.50;99.90;;;;;;4144392;28;20038;-72
2023/12/17 00:10:49;;;;;;;16.30;9.32;;;9.50;99.90;;;;;;4162831;28;20657;-71
2023/12/17 00:12:50;;;;;;;13.68;7.70;;;9.50;99.90;;;;;;4170386;28;20111;-72
2023/12/17 00:14:50;;;;;;;12.85;7.78;;;9.50;99.90;;;;;;4163909;28;20041;-72
2023/12/17 00:16:51;;;;;;;12.15;7.85;;;9.50;99.90;;;;;;4159113;28;20037;-71
2023/12/17 00:18:51;;;;;;;10.60;7.40;;;9.50;99.90;;;;;;4158164;28;20116;-71
2023/12/17 00:20:52;;;;;;;17.52;8.80;;;9.50;99.90;;;;;;4164630;28;20541;-72
2023/12/17 00:22:53;;;;;;;14.55;8.90;;;9.50;99.90;;;;;;4159580;28;20495;-72
2023/12/17 00:24:53;;;;;;;13.57;8.85;;;9.50;99.90;;;;;;4169869;28;20037;-73
2023/12/17 00:26:56;;;;;;;13.30;8.35;;;9.50;99.90;;;;;;4156764;28;20033;-73
2023/12/17 00:28:58;;;;;;;17.25;8.50;;;9.40;99.90;;;;;;4164316;28;20045;-73
2023/12/17 00:30:58;;;;;;;14.40;8.38;;;9.40;99.90;;;;;;4139737;28;20033;-73
2023/12/17 00:32:59;;;;;;;14.02;8.63;;;9.40;99.90;;;;;;4164748;28;20435;-72
2023/12/17 00:35:00;;;;;;;12.13;7.68;;;9.40;99.90;;;;;;4163257;28;20474;-73
2023/12/17 00:37:00;;;;;;;14.32;8.00;;;9.50;99.90;;;;;;4160210;28;20119;-73
2023/12/17 00:39:01;;;;;;;12.80;8.27;;;9.50;99.90;;;;;;4166243;28;20090;-74
2023/12/17 00:41:01;;;;;;;13.30;8.30;;;9.40;99.90;;;;;;4155796;28;20063;-73
2023/12/17 00:43:02;;;;;;;13.02;8.50;;;9.50;99.90;;;;;;4169047;28;20087;-73
2023/12/17 00:45:03;;;;;;;12.00;7.85;;;9.50;99.90;;;;;;4163691;28;20040;-74
2023/12/17 00:47:03;;;;;;;13.45;8.57;;;9.50;99.90;;;;;;4167314;28;20021;-73
2023/12/17 00:49:04;;;;;;;11.90;7.47;;;9.50;99.90;;;;;;4156377;28;20026;-73
2023/12/17 00:51:09;;;;;;;10.38;7.60;;;9.40;99.90;;;;;;4165842;28;20028;-73
2023/12/17 00:53:09;;;;;;;10.20;7.47;;;9.50;99.90;;;;;;4165603;28;20032;-73
2023/12/17 00:55:10;;;;;;;12.38;8.35;;;9.50;99.90;;;;;;4171517;28;20116;-73
2023/12/17 00:57:10;;;;;;;11.88;9.02;;;9.50;99.90;;;;;;4165016;28;20445;-73
2023/12/17 00:59:11;;;;;;;12.27;7.75;;;9.40;99.90;;;;;;4169142;28;20041;-73
2023/12/17 01:01:12;;;;;;;10.65;7.85;;;9.50;99.90;;;;;;4167795;28;20039;-72
2023/12/17 01:03:12;;;;;;;13.13;8.88;;;9.50;99.90;;;;;;4164675;28;20402;-73
2023/12/17 01:05:13;;;;;;;12.07;8.45;;;9.50;99.90;;;;;;4153179;28;20231;-73
2023/12/17 01:07:13;;;;;;;13.35;8.43;;;9.50;99.90;;;;;;4156116;28;20132;-73
2023/12/17 01:09:15;;;;;;;10.23;7.57;;;9.50;99.90;;;;;;4156037;28;20069;-73
2023/12/17 01:11:16;;;;;;;14.15;8.95;;;9.50;99.90;;;;;;4158890;28;20128;-74
2023/12/17 01:13:16;;;;;;;13.07;8.40;;;9.50;99.90;;;;;;4169937;28;20036;-74
2023/12/17 01:15:17;;;;;;;13.15;7.72;;;9.50;99.90;;;;;;4158978;28;20487;-74
2023/12/17 01:17:18;;;;;;;11.43;7.68;;;9.60;99.90;;;;;;4154616;28;20406;-74
2023/12/17 01:19:18;;;;;;;13.27;8.70;;;9.50;99.90;;;;;;4158989;28;20064;-74
2023/12/17 01:21:19;;;;;;;14.32;8.48;;;9.50;99.90;;;;;;4160815;28;20052;-72
2023/12/17 01:23:19;;;;;;;14.13;8.65;;;9.50;99.90;;;;;;4166713;28;20076;-72
2023/12/17 01:25:20;;;;;;;10.30;7.68;;;9.50;99.90;;;;;;4142236;28;20037;-73
2023/12/17 01:27:21;;;;;;;13.63;8.00;;;9.50;99.90;;;;;;4164409;28;20501;-72
2023/12/17 01:29:22;;;;;;;10.60;7.72;;;9.50;99.90;;;;;;4169868;28;20037;-73
2023/12/17 01:31:22;;;;;;;13.05;8.00;;;9.60;99.90;;;;;;4164299;28;20045;-72
2023/12/17 01:33:23;;;;;;;12.02;8.07;;;9.50;99.90;;;;;;4166364;28;20038;-72
2023/12/17 01:35:24;;;;;;;12.05;7.70;;;9.50;99.90;;;;;;4162637;28;20037;-72
2023/12/17 01:37:24;;;;;;;12.00;7.90;;;9.50;99.90;;;;;;4165823;28;20045;-72
2023/12/17 01:39:25;;;;;;;11.63;8.23;;;9.50;99.90;;;;;;4162260;28;20041;-72
2023/12/17 01:41:25;;;;;;;14.18;8.50;;;9.60;99.90;;;;;;4160658;28;21451;-72
2023/12/17 01:43:26;;;;;;;13.18;7.97;;;9.60;99.90;;;;;;4162181;28;20090;-72
2023/12/17 01:45:27;;;;;;;12.07;7.85;;;9.50;99.90;;;;;;4166415;28;20036;-72
2023/12/17 01:47:27;;;;;;;13.10;8.60;;;9.50;99.90;;;;;;4159700;28;20029;-72
2023/12/17 01:49:28;;;;;;;14.23;8.27;;;9.50;99.90;;;;;;4167653;28;20036;-72
2023/12/17 01:51:31;;;;;;;12.15;7.70;;;9.50;99.90;;;;;;4155125;28;20387;-72
2023/12/17 01:53:31;;;;;;;12.05;8.32;;;9.50;99.90;;;;;;4169621;28;20032;-72
2023/12/17 01:55:32;;;;;;;10.27;7.75;;;9.50;99.90;;;;;;4163305;28;20029;-73
2023/12/17 01:57:33;;;;;;;12.35;8.50;;;9.50;99.90;;;;;;4163780;28;20079;-73
2023/12/17 01:59:35;;;;;;;10.80;7.55;;;9.60;99.90;;;;;;4162583;28;20109;-72
2023/12/17 02:01:36;;;;;;;12.77;8.60;;;9.50;99.90;;;;;;4170417;28;20128;-74
2023/12/17 02:03:36;;;;;;;16.33;9.10;;;9.60;99.90;;;;;;4167969;28;20494;-73
2023/12/17 02:05:37;;;;;;;10.55;7.60;;;9.50;99.90;;;;;;4167302;28;20034;-71
2023/12/17 02:07:40;;;;;;;11.15;7.70;;;9.50;99.90;;;;;;4165333;28;20026;-72
2023/12/17 02:09:41;;;;;;;12.57;8.35;;;9.50;99.90;;;;;;4145162;28;20034;-73
2023/12/17 02:11:42;;;;;;;10.95;8.05;;;9.50;99.90;;;;;;4158391;28;20030;-72
2023/12/17 02:13:42;;;;;;;14.38;7.85;;;9.60;99.90;;;;;;4167161;28;20034;-73
2023/12/17 02:15:43;;;;;;;11.15;8.02;;;9.60;99.90;;;;;;4147889;28;20097;-72
2023/12/17 02:17:43;;;;;;;11.60;7.72;;;9.50;99.90;;;;;;4165329;28;20163;-72
2023/12/17 02:19:44;;;;;;;10.32;7.30;;;9.60;99.90;;;;;;4166015;28;20029;-72
2023/12/17 02:21:45;;;;;;;11.98;8.02;;;9.60;99.90;;;;;;4154170;28;20038;-73
2023/12/17 02:23:45;;;;;;;11.20;7.97;;;9.50;99.90;;;;;;4171660;28;20487;-72
2023/12/17 02:25:46;;;;;;;10.13;7.70;;;9.60;99.90;;;;;;4170667;28;20041;-72
2023/12/17 02:27:47;;;;;;;12.48;7.53;;;9.50;99.90;;;;;;4172601;28;20076;-72
2023/12/17 02:29:48;;;;;;;12.50;7.65;;;9.50;99.90;;;;;;4163819;28;20034;-72
2023/12/17 02:31:49;;;;;;;11.50;7.80;;;9.50;99.90;;;;;;4161937;28;20048;-74
2023/12/17 02:33:49;;;;;;;10.38;7.53;;;9.50;99.90;;;;;;4161012;28;20058;-74
2023/12/17 02:35:50;;;;;;;12.98;8.30;;;9.50;99.90;;;;;;4163662;28;20047;-74
2023/12/17 02:37:51;;;;;;;10.88;7.72;;;9.50;99.90;;;;;;4158629;28;20029;-74
2023/12/17 02:39:51;;;;;;;11.50;7.57;;;9.50;99.90;;;;;;4159056;28;20065;-74
2023/12/17 02:41:52;;;;;;;10.35;7.30;;;9.50;99.90;;;;;;4157810;28;20029;-74
2023/12/17 02:43:53;;;;;;;13.48;7.72;;;9.50;99.90;;;;;;4161785;28;20457;-74
2023/12/17 02:45:53;;;;;;;11.32;7.80;;;9.50;99.90;;;;;;4170162;28;20037;-74
2023/12/17 02:47:54;;;;;;;11.35;7.70;;;9.50;99.90;;;;;;4159102;28;20498;-74
2023/12/17 02:49:54;;;;;;;11.02;7.95;;;9.50;99.90;;;;;;4162187;28;20521;-74
2023/12/17 02:51:55;;;;;;;10.95;7.93;;;9.50;99.90;;;;;;4160035;28;20045;-74
2023/12/17 02:53:55;;;;;;;9.90;7.35;;;9.40;99.90;;;;;;4161710;28;20021;-74
2023/12/17 02:55:56;;;;;;;10.18;7.40;;;9.50;99.90;;;;;;4169290;28;20044;-74
2023/12/17 02:57:57;;;;;;;9.35;7.30;;;9.40;99.90;;;;;;4176066;28;20065;-74
2023/12/17 02:59:57;;;;;;;10.43;7.80;;;9.50;99.90;;;;;;4163762;28;20052;-74
2023/12/17 03:01:58;;;;;;;10.25;7.55;;;9.50;99.90;;;;;;4163919;28;20029;-74
2023/12/17 03:03:58;;;;;;;11.63;7.85;;;9.40;99.90;;;;;;4164096;28;20132;-74
2023/12/17 03:05:59;;;;;;;8.75;6.80;;;9.40;99.90;;;;;;4163963;28;20120;-74
2023/12/17 03:07:59;;;;;;;13.20;7.72;;;9.50;99.90;;;;;;4162861;28;20602;-74
2023/12/17 03:10:00;;;;;;;10.85;7.65;;;9.40;99.90;;;;;;4163592;28;20430;-74
2023/12/17 03:12:02;;;;;;;12.25;7.30;;;9.40;99.90;;;;;;4166262;28;20406;-74
2023/12/17 03:14:02;;;;;;;12.67;8.20;;;9.50;99.90;;;;;;4162268;28;20040;-74
2023/12/17 03:16:03;;;;;;;13.35;8.60;;;9.40;99.90;;;;;;4168245;28;20477;-74
2023/12/17 03:18:04;;;;;;;12.23;7.55;;;9.50;99.90;;;;;;4170920;28;20159;-74
2023/12/17 03:20:05;;;;;;;11.52;7.72;;;9.40;99.90;;;;;;4169515;28;20433;-74
2023/12/17 03:22:06;;;;;;;12.40;8.25;;;9.40;99.90;;;;;;4159721;28;20092;-74
2023/12/17 03:24:07;;;;;;;11.25;7.95;;;9.40;99.90;;;;;;4145700;28;20025;-74
2023/12/17 03:26:07;;;;;;;12.27;8.65;;;9.40;99.90;;;;;;4159769;28;20505;-74
2023/12/17 03:28:08;;;;;;;10.90;8.30;;;9.40;99.90;;;;;;4158652;28;20085;-74
2023/12/17 03:30:09;;;;;;;9.50;7.65;;;9.40;99.90;;;;;;4160142;28;20760;-74
2023/12/17 03:32:09;;;;;;;10.23;7.60;;;9.40;99.90;;;;;;4171400;28;20537;-74
2023/12/17 03:34:10;;;;;;;10.40;7.95;;;9.30;99.90;;;;;;4169230;28;20037;-74
2023/12/17 03:36:15;;;;;;;11.98;8.35;;;9.40;99.90;;;;;;4168819;28;20049;-74
2023/12/17 03:38:15;;;;;;;12.10;8.18;;;9.40;99.90;;;;;;4162237;28;20399;-74
2023/12/17 03:40:16;;;;;;;12.55;8.77;;;9.30;99.90;;;;;;4165859;28;20045;-73
2023/12/17 03:42:17;;;;;;;12.07;8.80;;;9.30;99.90;;;;;;4167613;28;20709;-73
2023/12/17 03:44:17;;;;;;;9.88;7.85;;;9.30;99.90;;;;;;4159940;28;20037;-72
2023/12/17 03:46:23;;;;;;;14.25;8.27;;;9.30;99.90;;;;;;4165011;28;20509;-75
2023/12/17 03:48:23;;;;;;;14.65;8.27;;;9.30;99.90;;;;;;4165839;28;20049;-73
2023/12/17 03:50:24;;;;;;;11.93;8.63;;;9.30;99.90;;;;;;4169402;28;20032;-73
2023/12/17 03:52:24;;;;;;;10.23;7.78;;;9.30;99.90;;;;;;4165820;28;20029;-73
2023/12/17 03:54:25;;;;;;;11.88;8.80;;;9.30;99.90;;;;;;4165867;28;20029;-74
2023/12/17 03:56:26;;;;;;;12.32;8.07;;;9.40;99.90;;;;;;4162105;28;20034;-73
2023/12/17 03:58:27;;;;;;;11.55;8.35;;;9.40;99.90;;;;;;4163512;28;20049;-73
2023/12/17 04:00:28;;;;;;;11.13;8.35;;;9.30;99.90;;;;;;4164754;28;20037;-73
2023/12/17 04:02:29;;;;;;;10.60;7.28;;;9.30;99.90;;;;;;4165666;28;20049;-73
2023/12/17 04:04:30;;;;;;;12.93;8.50;;;9.40;99.90;;;;;;4164885;28;20037;-73
2023/12/17 04:06:30;;;;;;;13.10;8.93;;;9.30;99.90;;;;;;4161818;28;20100;-73
2023/12/17 04:08:31;;;;;;;10.00;7.45;;;9.40;99.90;;;;;;4166236;28;20029;-73
2023/12/17 04:10:32;;;;;;;12.30;8.05;;;9.40;99.90;;;;;;4167015;28;20173;-73
2023/12/17 04:12:32;;;;;;;11.75;8.52;;;9.40;99.90;;;;;;4171801;28;20128;-73
2023/12/17 04:14:33;;;;;;;10.02;7.80;;;9.30;99.90;;;;;;4160178;28;20475;-73
2023/12/17 04:16:33;;;;;;;10.98;7.90;;;9.40;99.90;;;;;;4157719;28;20112;-74
2023/12/17 04:18:34;;;;;;;12.25;9.07;;;9.40;99.90;;;;;;4165390;28;20108;-72
2023/12/17 04:20:35;;;;;;;11.05;8.00;;;9.40;99.90;;;;;;4162375;28;20621;-74
2023/12/17 04:22:35;;;;;;;13.85;9.20;;;9.30;99.90;;;;;;4154098;28;20556;-73
2023/12/17 04:24:36;;;;;;;12.93;8.57;;;9.30;99.90;;;;;;4158871;28;20418;-73
2023/12/17 04:26:36;;;;;;;13.23;9.05;;;9.30;99.90;;;;;;4162185;28;20148;-74
2023/12/17 04:28:37;;;;;;;11.13;8.27;;;9.30;99.90;;;;;;4168306;28;20056;-74
2023/12/17 04:30:38;;;;;;;11.63;8.15;;;9.30;99.90;;;;;;4176414;28;20409;-74
2023/12/17 04:32:38;;;;;;;11.52;7.80;;;9.30;99.90;;;;;;4164295;28;20037;-74
2023/12/17 04:34:39;;;;;;;12.10;7.55;;;9.30;99.90;;;;;;4157789;28;20042;-74
2023/12/17 04:36:41;;;;;;;10.77;8.00;;;9.30;99.90;;;;;;4172908;28;20131;-73
2023/12/17 04:38:41;;;;;;;10.77;7.68;;;9.30;99.90;;;;;;4169496;28;20053;-74
2023/12/17 04:40:45;;;;;;;13.10;8.02;;;9.30;99.90;;;;;;4159689;28;20410;-75
2023/12/17 04:42:45;;;;;;;11.05;7.90;;;9.30;99.90;;;;;;4167095;28;20043;-73
2023/12/17 04:44:46;;;;;;;10.48;7.25;;;9.30;99.90;;;;;;4161255;28;20061;-74
2023/12/17 04:46:46;;;;;;;10.18;7.32;;;9.30;99.90;;;;;;4158709;28;20095;-73
2023/12/17 04:48:47;;;;;;;11.63;7.93;;;9.20;99.90;;;;;;4163264;28;20431;-73
2023/12/17 04:50:48;;;;;;;9.93;7.45;;;9.20;99.90;;;;;;4160534;28;20175;-72
2023/12/17 04:52:48;;;;;;;9.35;6.63;;;9.30;99.90;;;;;;4160438;28;20037;-73
2023/12/17 04:54:49;;;;;;;9.73;7.40;;;9.20;99.90;;;;;;4166151;28;20374;-73
2023/12/17 04:56:49;;;;;;;9.98;6.43;;;9.20;99.90;;;;;;4161615;28;20425;-72
2023/12/17 04:58:50;;;;;;;11.38;8.15;;;9.10;99.90;;;;;;4161522;28;20032;-73
2023/12/17 05:00:51;;;;;;;11.50;7.88;;;9.10;99.90;;;;;;4163465;28;20437;-74
2023/12/17 05:02:51;;;;;;;10.68;7.15;;;9.20;99.90;;;;;;4161369;28;20030;-73
2023/12/17 05:04:52;;;;;;;9.18;7.05;;;9.10;99.90;;;;;;4165473;28;20116;-73
2023/12/17 05:06:52;;;;;;;11.57;6.72;;;9.10;99.90;;;;;;4170337;28;20067;-72
2023/12/17 05:08:53;;;;;;;11.18;7.28;;;9.10;99.90;;;;;;4160151;28;20556;-73
2023/12/17 05:10:53;;;;;;;11.50;7.63;;;9.10;99.90;;;;;;4162089;28;21543;-72
2023/12/17 05:12:54;;;;;;;9.07;6.88;;;9.00;99.90;;;;;;4163291;28;20026;-72
2023/12/17 05:14:55;;;;;;;10.20;7.53;;;9.00;99.90;;;;;;4160706;28;20052;-73
2023/12/17 05:16:55;;;;;;;8.25;6.45;;;9.10;99.90;;;;;;4163922;28;20041;-73
2023/12/17 05:18:56;;;;;;;10.02;7.10;;;9.00;99.90;;;;;;4164283;28;20087;-73
2023/12/17 05:20:56;;;;;;;10.10;7.60;;;9.00;99.90;;;;;;4167879;28;20100;-73
2023/12/17 05:22:57;;;;;;;10.57;6.97;;;9.00;99.90;;;;;;4161422;28;20046;-73
2023/12/17 05:24:57;;;;;;;13.25;7.80;;;9.00;99.90;;;;;;4167511;28;20037;-73
2023/12/17 05:26:58;;;;;;;10.50;7.22;;;9.00;99.90;;;;;;4170619;28;20033;-72
2023/12/17 05:28:59;;;;;;;9.25;6.72;;;9.00;99.90;;;;;;4161798;28;20040;-72
2023/12/17 05:30:59;;;;;;;10.52;7.22;;;9.00;99.90;;;;;;4157052;28;20479;-73
2023/12/17 05:33:00;;;;;;;10.68;7.10;;;9.00;99.90;;;;;;4168072;28;20502;-72
2023/12/17 05:35:00;;;;;;;12.35;7.30;;;9.00;99.90;;;;;;4166343;28;20588;-73
2023/12/17 05:37:01;;;;;;;9.90;7.20;;;9.00;99.90;;;;;;4164584;28;20517;-73
2023/12/17 05:39:02;;;;;;;12.52;8.02;;;9.00;99.90;;;;;;4162689;28;20426;-73
2023/12/17 05:41:04;;;;;;;10.07;7.22;;;9.00;99.90;;;;;;4174042;28;20037;-73
2023/12/17 05:43:05;;;;;;;10.50;7.40;;;8.90;99.90;;;;;;4165421;28;20141;-73
2023/12/17 05:45:07;;;;;;;11.90;7.25;;;8.90;99.90;;;;;;4163875;28;20086;-72
2023/12/17 05:47:08;;;;;;;12.03;7.97;;;8.90;99.90;;;;;;4174247;28;20037;-74
2023/12/17 05:49:08;;;;;;;9.10;6.60;;;8.90;99.90;;;;;;4170792;28;20329;-73
2023/12/17 05:51:09;;;;;;;9.93;6.85;;;8.90;99.90;;;;;;4169006;28;20556;-73
2023/12/17 05:53:10;;;;;;;9.40;7.20;;;8.90;99.90;;;;;;4166684;28;20033;-73
2023/12/17 05:55:10;;;;;;;11.07;6.93;;;8.90;99.90;;;;;;4172356;28;20029;-73
2023/12/17 05:57:11;;;;;;;11.18;7.43;;;8.90;99.90;;;;;;4164675;28;20137;-73
2023/12/17 05:59:12;;;;;;;11.93;8.20;;;8.90;99.90;;;;;;4171727;28;20041;-73
2023/12/17 06:01:14;;;;;;;10.75;6.95;;;8.90;99.90;;;;;;4171039;28;20787;-74
2023/12/17 06:03:14;;;;;;;11.30;7.97;;;8.80;99.90;;;;;;4161646;28;20049;-74
2023/12/17 06:05:15;;;;;;;10.95;7.65;;;8.80;99.90;;;;;;4163506;28;20041;-73
2023/12/17 06:07:17;;;;;;;12.18;7.82;;;8.80;99.90;;;;;;4168358;28;20037;-74
2023/12/17 06:09:17;;;;;;;12.10;7.50;;;8.80;99.90;;;;;;4165916;28;20115;-73
2023/12/17 06:11:18;;;;;;;10.68;7.65;;;8.80;99.90;;;;;;4165910;28;20033;-74
2023/12/17 06:13:19;;;;;;;11.90;7.15;;;8.80;99.90;;;;;;4163969;28;20063;-74
2023/12/17 06:15:20;;;;;;;9.60;7.18;;;8.80;99.90;;;;;;4173450;28;20041;-74
2023/12/17 06:17:21;;;;;;;9.88;7.28;;;8.80;99.90;;;;;;4168748;28;20128;-74
2023/12/17 06:19:21;;;;;;;11.57;7.53;;;8.80;99.90;;;;;;4161827;28;20104;-73
2023/12/17 06:21:26;;;;;;;10.60;7.85;;;8.80;99.90;;;;;;4166289;28;20064;-75
2023/12/17 06:23:26;;;;;;;11.43;8.13;;;8.80;99.90;;;;;;4157348;28;20503;-75
2023/12/17 06:25:27;;;;;;;11.15;7.10;;;8.80;99.90;;;;;;4172405;28;20064;-75
2023/12/17 06:27:27;;;;;;;10.77;7.13;;;8.80;99.90;;;;;;4160604;28;20513;-75
2023/12/17 06:29:28;;;;;;;9.55;6.72;;;8.80;99.90;;;;;;4163742;28;20582;-73
2023/12/17 06:31:30;;;;;;;10.95;7.18;;;8.80;99.90;;;;;;4158563;28;20430;-74
2023/12/17 06:33:30;;;;;;;11.03;7.47;;;8.70;99.90;;;;;;4169179;28;20072;-74
2023/12/17 06:35:31;;;;;;;9.93;6.82;;;8.70;99.90;;;;;;4158658;28;20493;-74
2023/12/17 06:37:31;;;;;;;10.23;6.65;;;8.80;99.90;;;;;;4166221;28;20510;-73
2023/12/17 06:39:32;;;;;;;12.10;7.57;;;8.80;99.90;;;;;;4153062;28;20498;-73
2023/12/17 06:41:33;;;;;;;9.43;6.93;;;8.80;99.90;;;;;;4153635;28;20574;-75
2023/12/17 06:43:36;;;;;;;10.85;6.90;;;8.80;99.90;;;;;;4171405;28;20056;-77
2023/12/17 06:45:37;;;;;;;11.52;6.88;;;8.70;99.90;;;;;;4161177;28;20589;-74
2023/12/17 06:47:37;;;;;;;9.10;6.70;;;8.70;99.90;;;;;;4160591;28;20026;-75
2023/12/17 06:49:38;;;;;;;9.70;6.72;;;8.70;99.90;;;;;;4155517;28;20446;-75
2023/12/17 06:51:39;;;;;;;12.40;7.47;;;8.70;99.90;;;;;;4154120;28;20557;-74
2023/12/17 06:53:40;;;;;;;10.05;6.68;;;8.70;99.90;;;;;;4155487;28;20518;-75
2023/12/17 06:55:41;;;;;;;11.65;7.32;;;8.70;99.90;;;;;;4157066;28;20072;-73
2023/12/17 06:57:47;;;;;;;10.45;7.10;;;8.70;99.90;;;;;;4155859;28;20044;-75
2023/12/17 06:59:47;;;;;;;9.57;6.95;;;8.70;99.90;;;;;;4162533;28;20121;-75
2023/12/17 07:01:48;;;;;;;13.32;7.60;;;8.70;99.90;;;;;;4155273;28;20037;-75
2023/12/17 07:03:50;;;;;;;13.82;7.57;;;8.70;99.90;;;;;;4152670;28;20120;-75
2023/12/17 07:05:50;;;;;;;11.77;7.30;;;8.70;99.90;;;;;;4153399;28;20378;-75
2023/12/17 07:07:51;;;;;;;13.90;7.78;;;8.60;99.90;;;;;;4153429;28;20033;-75
2023/12/17 07:09:53;;;;;;;11.10;6.45;;;8.70;99.90;;;;;;4157148;28;20679;-75
2023/12/17 07:11:53;;;;;;;9.43;6.23;;;8.70;99.90;;;;;;4158333;28;20026;-76
2023/12/17 07:13:54;;;;;;;11.52;7.10;;;8.70;99.90;;;;;;4155272;28;20260;-73
2023/12/17 07:15:54;;;;;;;12.95;7.60;;;8.70;99.90;;;;;;4158226;28;20034;-73
2023/12/17 07:17:55;;;;;;;11.07;7.78;;;8.70;99.90;;;;;;4154992;28;20705;-74
2023/12/17 07:19:56;;;;;;;10.38;7.68;;;8.60;99.90;;;;;;4158651;28;20162;-73
2023/12/17 07:21:56;;;;;;;9.70;6.40;;;8.60;99.90;;;;;;4156942;28;20223;-74
2023/12/17 07:23:57;;;;;;;11.23;7.38;;;8.70;99.90;;;;;;4157018;28;20037;-74
2023/12/17 07:25:58;;;;;;;9.43;6.47;;;8.70;99.90;;;;;;4150259;28;20414;-73
2023/12/17 07:27:58;;;;;;;9.82;7.05;;;8.60;99.90;;;;;;4160672;28;20528;-73
2023/12/17 07:29:59;;;;;;;9.98;7.15;;;8.70;99.90;;;;;;4153761;28;20033;-73
2023/12/17 07:31:59;;;;;;;12.18;7.47;;;8.70;99.90;;;;;;4150323;28;20112;-74
2023/12/17 07:34:00;;;;;;;10.20;7.40;;;8.60;99.90;;;;;;4146777;28;20038;-73
2023/12/17 07:36:01;;;;;;;11.30;7.00;;;8.60;99.90;;;;;;4153157;28;20037;-73
2023/12/17 07:38:01;;;;;;;10.43;7.35;;;8.60;99.90;;;;;;4162250;28;20045;-73
2023/12/17 07:40:03;;;;;;;10.45;7.28;;;8.60;99.90;;;;;;4163120;28;20103;-73
2023/12/17 07:42:03;;;;;;;9.70;6.68;;;8.60;99.90;;;;;;4135090;28;20088;-73
2023/12/17 07:44:04;;;;;;;10.15;6.47;;;8.50;99.90;;;;;;4151209;28;20482;-73
2023/12/17 07:46:05;;;;;;;11.15;7.15;;;8.60;99.90;;;;;;4153686;28;20049;-73
2023/12/17 07:48:05;;;;;;;11.38;6.80;;;8.60;99.90;;;;;;4152008;28;20045;-73
2023/12/17 07:50:08;;;;;;;10.90;7.32;;;8.50;99.90;;;;;;4150502;28;20076;-74
2023/12/17 07:52:09;;;;;;;11.45;6.85;;;8.60;99.90;;;;;;4151809;28;20467;-74
2023/12/17 07:54:09;;;;;;;10.77;7.32;;;8.50;99.90;;;;;;4155029;28;20025;-74
2023/12/17 07:56:10;;;;;;;9.85;7.13;;;8.50;99.90;;;;;;4159757;28;20505;-74
2023/12/17 07:58:11;;;;;;;10.15;7.15;;;8.50;99.90;;;;;;4159953;28;20030;-73
2023/12/17 08:00:12;;;;;;;10.20;7.05;;;8.50;99.90;;;;;;4153755;28;20395;-74
2023/12/17 08:02:16;;;;;;;9.52;6.78;;;8.40;99.90;;;;;;4164368;28;20068;-74
2023/12/17 08:04:16;;;;;;;11.70;6.55;;;8.50;99.90;;;;;;4154607;28;20116;-74
2023/12/17 08:06:17;;;;;;;10.55;6.93;;;8.40;99.90;;;;;;4167285;28;20055;-73
2023/12/17 08:08:17;;;;;;;9.75;6.63;;;8.40;99.90;;;;;;4159073;28;20037;-73
2023/12/17 08:10:18;;;;;;;10.98;7.32;;;8.50;99.90;;;;;;4154993;28;20387;-73
2023/12/17 08:12:19;;;;;;;12.73;7.50;;;8.40;99.90;;;;;;4159515;28;20052;-73
2023/12/17 08:14:20;;;;;;;9.38;6.50;;;8.40;99.90;;;;;;4156995;28;20032;-73
2023/12/17 08:16:20;;;;;;;9.85;6.95;;;8.50;99.90;;;;;;4153140;28;20108;-73
2023/12/17 08:18:21;;;;;;;12.13;7.55;;;8.40;99.90;;;;;;4160438;28;20068;-74
2023/12/17 08:20:22;;;;;;;11.82;7.43;;;8.40;99.90;;;;;;4152839;28;20121;-73
2023/12/17 08:22:22;;;;;;;11.90;6.85;;;8.40;99.90;;;;;;4162243;28;20046;-73
2023/12/17 08:24:23;;;;;;;12.25;7.47;;;8.40;99.90;;;;;;4155959;28;20034;-73
2023/12/17 08:26:23;;;;;;;11.75;7.30;;;8.40;99.90;;;;;;4153173;28;20042;-73
2023/12/17 08:28:24;;;;;;;11.45;7.10;;;8.40;99.90;;;;;;4149130;28;20038;-74
2023/12/17 08:30:24;;;;;;;11.20;6.50;;;8.30;99.90;;;;;;4130860;28;20046;-72
2023/12/17 08:32:31;;;;;;;10.73;6.88;;;8.40;99.90;;;;;;4152294;28;20029;-74
2023/12/17 08:34:32;;;;;;;11.40;7.10;;;8.40;99.90;;;;;;4151070;28;20638;-73
2023/12/17 08:36:33;;;;;;;13.30;7.85;;;8.30;99.90;;;;;;4149461;28;20062;-73
2023/12/17 08:38:33;;;;;;;11.73;7.15;;;8.30;99.90;;;;;;4150637;28;20048;-73
2023/12/17 08:40:37;;;;;;;11.27;7.32;;;8.40;99.90;;;;;;4149130;28;20164;-74
2023/12/17 08:42:37;;;;;;;11.35;7.13;;;8.30;99.90;;;;;;4147774;28;20520;-73
2023/12/17 08:44:38;;;;;;;10.82;7.13;;;8.30;99.90;;;;;;4150576;28;20048;-73
2023/12/17 08:46:38;;;;;;;11.80;7.55;;;8.30;99.90;;;;;;4147521;28;20037;-74
2023/12/17 08:48:39;;;;;;;13.75;8.68;;;8.30;99.90;;;;;;4151326;28;20046;-74
2023/12/17 08:50:40;;;;;;;12.32;7.63;;;8.20;99.90;;;;;;4148225;28;20506;-73
2023/12/17 08:52:40;;;;;;;13.20;7.93;;;8.20;99.90;;;;;;4151536;28;20042;-74
2023/12/17 08:54:41;;;;;;;14.23;8.05;;;8.20;99.90;;;;;;4149720;28;20040;-74
2023/12/17 08:56:42;;;;;;;11.68;7.60;;;8.20;99.90;;;;;;4146837;28;20139;-73
2023/12/17 08:58:42;;;;;;;13.18;7.90;;;8.20;99.90;;;;;;4147302;28;20040;-73
2023/12/17 09:00:43;;;;;;;15.20;7.90;;;8.20;99.90;;;;;;4154362;28;20112;-73
2023/12/17 09:02:44;;;;;;;11.77;7.50;;;8.20;99.90;;;;;;4149838;28;20417;-74
2023/12/17 09:04:44;;;;;;;12.45;7.97;;;8.20;99.90;;;;;;4147405;28;20473;-74
2023/12/17 09:06:46;;;;;;;12.90;7.97;;;8.10;99.90;;;;;;4149881;28;20037;-73
2023/12/17 09:08:46;;;;;;;15.75;8.23;;;8.10;99.90;;;;;;4149930;28;20088;-73
2023/12/17 09:10:47;;;;;;;12.10;7.45;;;8.20;99.90;;;;;;4145666;28;20438;-73
2023/12/17 09:12:48;;;;;;;13.10;8.88;;;8.20;99.90;;;;;;4161889;28;20029;-73
2023/12/17 09:14:49;;;;;;;13.38;7.93;;;8.20;99.90;;;;;;4169027;28;20029;-73
2023/12/17 09:16:49;;;;;;;13.63;8.57;;;8.10;99.90;;;;;;4158270;28;20064;-73
2023/12/17 09:18:50;;;;;;;14.15;7.95;;;8.10;99.90;;;;;;4160938;28;20060;-74
2023/12/17 09:20:50;;;;;;;13.13;7.68;;;8.10;99.90;;;;;;4155384;28;20037;-73
2023/12/17 09:22:52;;;;;;;12.15;7.78;;;8.10;99.90;;;;;;4159858;28;20049;-73
2023/12/17 09:24:53;;;;;;;15.00;8.93;;;8.10;99.90;;;;;;4166963;28;20041;-73
2023/12/17 09:26:53;;;;;;;14.77;8.85;;;8.10;99.90;;;;;;4168995;28;20809;-73
2023/12/17 09:28:54;;;;;;;16.67;9.35;;;8.00;99.90;;;;;;4159129;28;20064;-73
2023/12/17 09:30:55;;;;;;;17.60;10.07;;;8.00;99.90;;;;;;4164285;28;20137;-73
2023/12/17 09:32:55;;;;;;;15.48;9.05;;;8.00;99.90;;;;;;4159322;28;20033;-73
2023/12/17 09:34:56;;;;;;;15.27;9.15;;;8.00;99.90;;;;;;4153237;28;20092;-73
2023/12/17 09:36:57;;;;;;;14.55;9.45;;;8.00;99.90;;;;;;4157652;28;20084;-73
2023/12/17 09:38:57;;;;;;;14.68;9.30;;;8.00;99.90;;;;;;4158978;28;20087;-73
2023/12/17 09:40:58;;;;;;;15.65;8.52;;;8.00;99.90;;;;;;4153981;28;20053;-73
2023/12/17 09:43:00;;;;;;;14.32;9.77;;;8.10;99.90;;;;;;4162564;28;20036;-73
2023/12/17 09:45:00;;;;;;;19.50;10.97;;;8.10;99.90;;;;;;4162494;28;20041;-74
2023/12/17 09:47:03;;;;;;;18.38;12.02;;;8.00;99.90;;;;;;4156576;28;20112;-73
2023/12/17 09:49:04;;;;;;;17.58;11.27;;;8.00;99.90;;;;;;4161162;28;20049;-73
2023/12/17 09:51:05;;;;;;;19.52;11.45;;;8.00;99.90;;;;;;4162123;28;20099;-73
2023/12/17 09:53:05;;;;;;;19.75;11.50;;;7.90;99.90;;;;;;4165734;28;20034;-73
2023/12/17 09:55:06;;;;;;;19.73;11.93;;;7.90;99.90;;;;;;4156942;28;20040;-74
2023/12/17 09:57:09;;;;;;;19.08;10.50;;;7.90;99.90;;;;;;4153930;28;20037;-73
2023/12/17 09:59:10;;;;;;;18.27;10.80;;;7.90;99.90;;;;;;4161615;28;20180;-74
2023/12/17 10:01:10;;;;;;;19.23;11.50;;;7.90;99.90;;;;;;4155290;28;20038;-74
2023/12/17 10:03:14;;;;;;;19.75;11.02;;;8.00;99.90;;;;;;4156704;28;20042;-74
2023/12/17 10:05:15;;;;;;;14.40;9.75;;;8.00;99.90;;;;;;4151512;28;20116;-73
2023/12/17 10:07:15;;;;;;;18.75;11.63;;;8.00;99.90;;;;;;4165460;28;20049;-73
2023/12/17 10:09:16;;;;;;;18.60;11.73;;;8.00;99.90;;;;;;4167996;28;20037;-73
2023/12/17 10:11:17;;;;;;;18.80;10.98;;;7.90;99.90;;;;;;4156303;28;20172;-73
2023/12/17 10:13:19;;;;;;;20.83;11.70;;;7.90;99.90;;;;;;4163156;28;20546;-74
2023/12/17 10:15:20;;;;;;;19.77;11.68;;;7.90;99.90;;;;;;4156687;28;20037;-73
2023/12/17 10:17:20;;;;;;;20.08;11.80;;;7.80;99.90;;;;;;4160199;28;20034;-73
2023/12/17 10:19:21;;;;;;;17.45;10.60;;;7.80;99.90;;;;;;4159161;28;20510;-73
2023/12/17 10:21:22;;;;;;;17.80;10.77;;;7.80;99.90;;;;;;4170054;28;20151;-73
2023/12/17 10:23:22;;;;;;;19.27;11.15;;;7.80;99.90;;;;;;4164066;28;20034;-73
2023/12/17 10:25:23;;;;;;;17.30;10.32;;;7.80;99.90;;;;;;4160767;28;20459;-73
2023/12/17 10:27:24;;;;;;;17.33;10.40;;;7.80;99.90;;;;;;4172088;28;20083;-73
2023/12/17 10:29:26;;;;;;;18.10;10.25;;;7.70;99.90;;;;;;4159456;28;20048;-73